Pensacola Naval Air Station,Forrest Sherman field Pensacola US
ICAO: KNPA
IATA: NPA
Category: Medium
Scheduled Services: No

Elevation: 28 ft
TransAlt. 18000 ft.

Airport Communications:
APP:120.05
ATIS:26.76
SHERMAN CLNC DEL:134.1
DEP:120.65
SHERMAN GND:121.7
SHERMAN BASE OPS:31.21
PMSV METRO:35.96
SHERMAN TWR:120.7

KNPA Zoom In..

If you have problems with the map follow the link
https://www.worldairports.se/pages/airport.php?
ICAO=KNPA

Runways:

(A) RW 01 length 7137 ft width 200 ft
---- / hdg 7

(B) RW 07L length 8002 ft width 200 ft
ILS 109.30 / hdg 70

(C) RW 07R length 8001 ft width 200 ft
---- / hdg 69

(D) RW 19 length 7137 ft width 200 ft
---- / hdg 187

(E) RW 25L length 8001 ft width 200 ft
---- / hdg 249

(F) RW 25R length 8002 ft width 200 ft
---- / hdg 250

Location; KNPA
Day. 12 / Time. 23.13 Zulu
* Altimeter: 30.19
* Temperature: 11° c. 51.8°f.
* Wind from: 050° Speed 12 kn.
Dewpoint: 09° c.
Visibility: 10 Statute Miles.
Clouds: Broken 1500 ft.
Clouds: Overcast 3100 ft.
Conditions: Thunderstorm.

KNPA 122313Z 05012KT 10SM -TSRA BKN015CB OVC031 11/09 A3019 RMK AO2 PRESFR OCNL LTGICCG NE-SE TS NE-SE MOV NE T1 SET P0000 T01060094 $


Wind From 050°
Speed 12 kn.

 
 
jpsmedia worldairports.se 2019   terms of use